AFL1914 USPP-USCC
Flight info
| Callsign | AFL1914 |
|---|---|
| Flight time | 0h 49m |
| Altitude | 35000 |
| Route | INPIL1L INPIL N986 IMANA L749 LUTAT LUTAT2C |
| Aircraft | A20N/M-SDE2E3FGHIRWXY/LB1 |
Departure
| Time | 2026-04-27 18:16 |
|---|---|
| Airport | Perm International Airport (USPP) |
Arrival
| Time | 2026-04-27 19:05 |
|---|---|
| Airport | Kurchatov Chelyabinsk International Airport (USCC) |
| Time | Latitude | Longitude | Altitude | Speed | Heading |
|---|---|---|---|---|---|
| 2026-04-27 17:52 | 57.91940 | 56.02145 | 393 ft | 0 kts | 316° |
| 2026-04-27 18:06 | 57.91938 | 56.02149 | 393 ft | 2 kts | 317° |
| 2026-04-27 18:07 | 57.91925 | 56.02166 | 393 ft | 2 kts | 330° |
| 2026-04-27 18:07 | 57.91912 | 56.02177 | 394 ft | 2 kts | 345° |
| 2026-04-27 18:07 | 57.91897 | 56.02181 | 394 ft | 2 kts | 359° |
| 2026-04-27 18:07 | 57.91882 | 56.02179 | 395 ft | 2 kts | 13° |
| 2026-04-27 18:08 | 57.91868 | 56.02169 | 395 ft | 2 kts | 27° |
| 2026-04-27 18:08 | 57.91856 | 56.02153 | 395 ft | 1 kts | 42° |
| 2026-04-27 18:08 | 57.91851 | 56.02144 | 395 ft | 1 kts | 47° |
| 2026-04-27 18:08 | 57.91850 | 56.02142 | 395 ft | 0 kts | 47° |
| 2026-04-27 18:11 | 57.91857 | 56.02156 | 395 ft | 2 kts | 44° |
| 2026-04-27 18:11 | 57.91877 | 56.02192 | 395 ft | 4 kts | 46° |
| 2026-04-27 18:11 | 57.91896 | 56.02229 | 395 ft | 2 kts | 47° |
| 2026-04-27 18:11 | 57.91951 | 56.02337 | 396 ft | 16 kts | 46° |
| 2026-04-27 18:12 | 57.92035 | 56.02501 | 395 ft | 17 kts | 46° |
| 2026-04-27 18:12 | 57.92123 | 56.02669 | 393 ft | 18 kts | 45° |
| 2026-04-27 18:12 | 57.92215 | 56.02846 | 391 ft | 19 kts | 46° |
| 2026-04-27 18:12 | 57.92302 | 56.03016 | 393 ft | 17 kts | 46° |
| 2026-04-27 18:13 | 57.92386 | 56.03181 | 392 ft | 16 kts | 44° |
| 2026-04-27 18:13 | 57.92462 | 56.03327 | 393 ft | 15 kts | 45° |
| 2026-04-27 18:13 | 57.92538 | 56.03473 | 394 ft | 14 kts | 46° |
| 2026-04-27 18:13 | 57.92611 | 56.03613 | 394 ft | 14 kts | 44° |
| 2026-04-27 18:14 | 57.92610 | 56.03762 | 395 ft | 13 kts | 133° |
| 2026-04-27 18:14 | 57.92569 | 56.03837 | 394 ft | 0 kts | 136° |
| 2026-04-27 18:14 | 57.92561 | 56.03852 | 394 ft | 5 kts | 136° |
| 2026-04-27 18:15 | 57.92509 | 56.03945 | 393 ft | 12 kts | 137° |
| 2026-04-27 18:15 | 57.92438 | 56.04018 | 393 ft | 11 kts | 187° |
| 2026-04-27 18:15 | 57.92384 | 56.03948 | 395 ft | 8 kts | 225° |
| 2026-04-27 18:15 | 57.92188 | 56.03580 | 395 ft | 79 kts | 225° |
| 2026-04-27 18:16 | 57.91641 | 56.02514 | 404 ft | 144 kts | 218° |
| 2026-04-27 18:16 | 57.90894 | 56.01134 | 922 ft | 154 kts | 219° |
| 2026-04-27 18:16 | 57.90166 | 55.99672 | 1596 ft | 155 kts | 216° |
| 2026-04-27 18:16 | 57.89434 | 55.98228 | 2293 ft | 157 kts | 215° |
| 2026-04-27 18:17 | 57.88639 | 55.96711 | 2878 ft | 172 kts | 215° |
| 2026-04-27 18:17 | 57.87762 | 55.95039 | 3462 ft | 189 kts | 216° |
| 2026-04-27 18:17 | 57.86793 | 55.93201 | 4035 ft | 209 kts | 217° |
| 2026-04-27 18:17 | 57.85813 | 55.91298 | 5161 ft | 204 kts | 218° |
| 2026-04-27 18:18 | 57.84740 | 55.89756 | 6026 ft | 202 kts | 198° |
| 2026-04-27 18:18 | 57.83332 | 55.89346 | 6648 ft | 218 kts | 175° |
| 2026-04-27 18:18 | 57.81832 | 55.90316 | 7294 ft | 241 kts | 155° |
| 2026-04-27 18:18 | 57.80381 | 55.91883 | 8202 ft | 245 kts | 156° |
| 2026-04-27 18:19 | 57.78894 | 55.93389 | 9166 ft | 248 kts | 156° |
| 2026-04-27 18:19 | 57.77382 | 55.94926 | 10106 ft | 252 kts | 156° |
| 2026-04-27 18:19 | 57.75826 | 55.96519 | 10730 ft | 266 kts | 156° |
| 2026-04-27 18:19 | 57.74148 | 55.98247 | 11207 ft | 284 kts | 155° |
| 2026-04-27 18:20 | 57.72378 | 56.00087 | 11645 ft | 303 kts | 155° |
| 2026-04-27 18:20 | 57.70493 | 56.02052 | 12189 ft | 316 kts | 155° |
| 2026-04-27 18:20 | 57.68583 | 56.04053 | 12992 ft | 321 kts | 155° |
| 2026-04-27 18:20 | 57.66664 | 56.06124 | 13770 ft | 327 kts | 151° |
| 2026-04-27 18:21 | 57.64884 | 56.08849 | 14524 ft | 338 kts | 140° |
| 2026-04-27 18:21 | 57.63392 | 56.12261 | 15293 ft | 349 kts | 129° |
| 2026-04-27 18:21 | 57.62104 | 56.16154 | 16053 ft | 355 kts | 127° |
| 2026-04-27 18:21 | 57.60849 | 56.20107 | 16769 ft | 359 kts | 127° |
| 2026-04-27 18:22 | 57.59575 | 56.24139 | 17489 ft | 363 kts | 127° |
| 2026-04-27 18:22 | 57.58301 | 56.28148 | 18183 ft | 366 kts | 127° |
| 2026-04-27 18:22 | 57.57000 | 56.32229 | 18877 ft | 369 kts | 127° |
| 2026-04-27 18:22 | 57.55703 | 56.36295 | 19909 ft | 362 kts | 128° |
| 2026-04-27 18:23 | 57.54447 | 56.40227 | 21015 ft | 352 kts | 128° |
| 2026-04-27 18:23 | 57.53231 | 56.44030 | 22094 ft | 341 kts | 129° |
| 2026-04-27 18:23 | 57.52044 | 56.47728 | 23155 ft | 331 kts | 129° |
| 2026-04-27 18:23 | 57.50904 | 56.51262 | 24179 ft | 320 kts | 130° |
| 2026-04-27 18:24 | 57.49792 | 56.54711 | 25170 ft | 308 kts | 131° |
| 2026-04-27 18:24 | 57.48711 | 56.58053 | 26095 ft | 299 kts | 131° |
| 2026-04-27 18:24 | 57.47651 | 56.61302 | 26705 ft | 298 kts | 132° |
| 2026-04-27 18:24 | 57.46558 | 56.64624 | 27208 ft | 301 kts | 132° |
| 2026-04-27 18:25 | 57.45475 | 56.67930 | 27674 ft | 305 kts | 133° |
| 2026-04-27 18:25 | 57.44374 | 56.71296 | 28131 ft | 308 kts | 133° |
| 2026-04-27 18:25 | 57.43263 | 56.74696 | 28573 ft | 312 kts | 133° |
| 2026-04-27 18:25 | 57.42128 | 56.78158 | 28992 ft | 316 kts | 133° |
| 2026-04-27 18:26 | 57.40996 | 56.81616 | 29421 ft | 319 kts | 133° |
| 2026-04-27 18:26 | 57.39843 | 56.85132 | 29836 ft | 322 kts | 133° |
| 2026-04-27 18:26 | 57.38636 | 56.88631 | 30249 ft | 322 kts | 136° |
| 2026-04-27 18:26 | 57.37318 | 56.91928 | 30656 ft | 320 kts | 140° |
| 2026-04-27 18:27 | 57.35870 | 56.95056 | 31021 ft | 319 kts | 144° |
| 2026-04-27 18:27 | 57.34340 | 56.97930 | 31377 ft | 318 kts | 147° |
| 2026-04-27 18:27 | 57.32681 | 57.00647 | 31714 ft | 318 kts | 151° |
| 2026-04-27 18:27 | 57.30964 | 57.03254 | 32051 ft | 321 kts | 150° |
| 2026-04-27 18:28 | 57.29255 | 57.05857 | 32401 ft | 323 kts | 150° |
| 2026-04-27 18:28 | 57.27503 | 57.08522 | 32726 ft | 326 kts | 150° |
| 2026-04-27 18:28 | 57.25775 | 57.11144 | 33051 ft | 328 kts | 150° |
| 2026-04-27 18:28 | 57.24012 | 57.13818 | 33348 ft | 331 kts | 150° |
| 2026-04-27 18:29 | 57.22230 | 57.16515 | 33632 ft | 334 kts | 150° |
| 2026-04-27 18:29 | 57.20414 | 57.19264 | 33922 ft | 337 kts | 150° |
| 2026-04-27 18:29 | 57.18599 | 57.22004 | 34202 ft | 339 kts | 150° |
| 2026-04-27 18:29 | 57.16775 | 57.24756 | 34492 ft | 341 kts | 151° |
| 2026-04-27 18:30 | 57.14959 | 57.27490 | 34727 ft | 344 kts | 150° |
| 2026-04-27 18:30 | 57.13086 | 57.30299 | 34803 ft | 351 kts | 150° |
| 2026-04-27 18:30 | 57.09209 | 57.36095 | 34816 ft | 370 kts | 150° |
| 2026-04-27 18:31 | 57.05135 | 57.42183 | 34819 ft | 388 kts | 149° |
| 2026-04-27 18:31 | 57.00883 | 57.48523 | 34825 ft | 404 kts | 149° |
| 2026-04-27 18:32 | 56.96480 | 57.55087 | 34831 ft | 410 kts | 149° |
| 2026-04-27 18:32 | 56.92083 | 57.61622 | 34832 ft | 410 kts | 149° |
| 2026-04-27 18:33 | 56.87663 | 57.68158 | 34838 ft | 410 kts | 150° |
| 2026-04-27 18:33 | 56.83234 | 57.74690 | 34841 ft | 410 kts | 150° |
| 2026-04-27 18:34 | 56.78808 | 57.81189 | 34843 ft | 410 kts | 150° |
| 2026-04-27 18:34 | 56.74377 | 57.87671 | 34852 ft | 417 kts | 150° |
| 2026-04-27 18:35 | 56.69810 | 57.94323 | 34856 ft | 429 kts | 149° |
| 2026-04-27 18:35 | 56.65120 | 58.01144 | 34861 ft | 435 kts | 149° |
| 2026-04-27 18:36 | 56.60418 | 58.07970 | 34857 ft | 436 kts | 149° |
| 2026-04-27 18:36 | 56.55684 | 58.14817 | 34870 ft | 437 kts | 149° |
| 2026-04-27 18:37 | 56.50929 | 58.21668 | 34872 ft | 438 kts | 149° |
| 2026-04-27 18:37 | 56.46173 | 58.28498 | 34878 ft | 439 kts | 149° |
| 2026-04-27 18:38 | 56.41436 | 58.35270 | 34885 ft | 440 kts | 149° |
| 2026-04-27 18:38 | 56.36652 | 58.42097 | 34889 ft | 440 kts | 149° |
| 2026-04-27 18:39 | 56.31854 | 58.48915 | 34884 ft | 433 kts | 149° |
| 2026-04-27 18:39 | 56.29553 | 58.52193 | 34892 ft | 416 kts | 149° |
| 2026-04-27 18:39 | 56.27320 | 58.55363 | 34896 ft | 411 kts | 149° |
| 2026-04-27 18:40 | 56.22842 | 58.61677 | 34896 ft | 411 kts | 149° |
| 2026-04-27 18:40 | 56.18327 | 58.68032 | 34904 ft | 412 kts | 150° |
| 2026-04-27 18:41 | 56.13864 | 58.74301 | 34904 ft | 412 kts | 150° |
| 2026-04-27 18:41 | 56.09336 | 58.80637 | 34923 ft | 413 kts | 150° |
| 2026-04-27 18:42 | 56.05584 | 58.85880 | 34763 ft | 415 kts | 149° |
| 2026-04-27 18:42 | 56.02552 | 58.90102 | 33905 ft | 418 kts | 149° |
| 2026-04-27 18:42 | 56.00290 | 58.93246 | 33227 ft | 419 kts | 149° |
| 2026-04-27 18:43 | 55.97997 | 58.96427 | 32529 ft | 420 kts | 149° |
| 2026-04-27 18:43 | 55.95713 | 58.99595 | 31845 ft | 420 kts | 149° |
| 2026-04-27 18:43 | 55.93408 | 59.02789 | 31158 ft | 420 kts | 149° |
| 2026-04-27 18:43 | 55.91122 | 59.05952 | 30456 ft | 420 kts | 149° |
| 2026-04-27 18:44 | 55.88829 | 59.09117 | 29703 ft | 420 kts | 148° |
| 2026-04-27 18:44 | 55.86519 | 59.12302 | 28939 ft | 420 kts | 148° |
| 2026-04-27 18:44 | 55.84212 | 59.15482 | 28159 ft | 421 kts | 148° |
| 2026-04-27 18:44 | 55.81926 | 59.18626 | 27379 ft | 421 kts | 148° |
| 2026-04-27 18:45 | 55.79601 | 59.21817 | 26584 ft | 422 kts | 148° |
| 2026-04-27 18:45 | 55.77334 | 59.24926 | 26044 ft | 416 kts | 148° |
| 2026-04-27 18:45 | 55.75050 | 59.28061 | 25515 ft | 411 kts | 148° |
| 2026-04-27 18:45 | 55.72821 | 59.31109 | 24987 ft | 406 kts | 148° |
| 2026-04-27 18:46 | 55.70612 | 59.34127 | 24455 ft | 402 kts | 148° |
| 2026-04-27 18:46 | 55.68400 | 59.37141 | 23920 ft | 398 kts | 148° |
| 2026-04-27 18:46 | 55.66231 | 59.40093 | 23394 ft | 395 kts | 148° |
| 2026-04-27 18:46 | 55.64081 | 59.43012 | 22874 ft | 392 kts | 148° |
| 2026-04-27 18:47 | 55.61916 | 59.45946 | 22342 ft | 389 kts | 148° |
| 2026-04-27 18:47 | 55.59800 | 59.48812 | 21816 ft | 386 kts | 148° |
| 2026-04-27 18:47 | 55.57672 | 59.51688 | 21286 ft | 384 kts | 148° |
| 2026-04-27 18:47 | 55.55581 | 59.54513 | 20763 ft | 381 kts | 148° |
| 2026-04-27 18:48 | 55.53498 | 59.57321 | 20237 ft | 379 kts | 148° |
| 2026-04-27 18:48 | 55.51399 | 59.60149 | 19705 ft | 376 kts | 147° |
| 2026-04-27 18:48 | 55.49346 | 59.62911 | 19183 ft | 374 kts | 147° |
| 2026-04-27 18:48 | 55.47293 | 59.65670 | 18663 ft | 371 kts | 148° |
| 2026-04-27 18:49 | 55.45234 | 59.68433 | 18136 ft | 369 kts | 148° |
| 2026-04-27 18:49 | 55.43231 | 59.71114 | 17630 ft | 366 kts | 148° |
| 2026-04-27 18:49 | 55.41256 | 59.73924 | 17113 ft | 368 kts | 140° |
| 2026-04-27 18:49 | 55.39825 | 59.77682 | 16590 ft | 379 kts | 117° |
| 2026-04-27 18:50 | 55.39264 | 59.82198 | 16069 ft | 387 kts | 95° |
| 2026-04-27 18:50 | 55.39376 | 59.86917 | 15585 ft | 387 kts | 90° |
| 2026-04-27 18:50 | 55.39559 | 59.91581 | 15090 ft | 385 kts | 89° |
| 2026-04-27 18:50 | 55.39733 | 59.96266 | 14595 ft | 382 kts | 89° |
| 2026-04-27 18:51 | 55.39886 | 60.00886 | 14106 ft | 380 kts | 90° |
| 2026-04-27 18:51 | 55.40025 | 60.05534 | 13611 ft | 377 kts | 90° |
| 2026-04-27 18:51 | 55.40152 | 60.10063 | 13134 ft | 375 kts | 90° |
| 2026-04-27 18:51 | 55.40277 | 60.14634 | 12655 ft | 372 kts | 90° |
| 2026-04-27 18:52 | 55.40379 | 60.19149 | 12172 ft | 369 kts | 91° |
| 2026-04-27 18:52 | 55.40423 | 60.23641 | 11686 ft | 366 kts | 92° |
| 2026-04-27 18:52 | 55.40451 | 60.28088 | 11201 ft | 364 kts | 92° |
| 2026-04-27 18:53 | 55.40505 | 60.36792 | 10434 ft | 350 kts | 92° |
| 2026-04-27 18:53 | 55.40534 | 60.40983 | 10259 ft | 337 kts | 92° |
| 2026-04-27 18:53 | 55.40562 | 60.45027 | 10156 ft | 323 kts | 92° |
| 2026-04-27 18:53 | 55.40588 | 60.48899 | 10068 ft | 309 kts | 92° |
| 2026-04-27 18:54 | 55.40611 | 60.52574 | 9957 ft | 297 kts | 93° |
| 2026-04-27 18:54 | 55.40631 | 60.56193 | 9589 ft | 297 kts | 93° |
| 2026-04-27 18:54 | 55.40650 | 60.59806 | 9234 ft | 295 kts | 93° |
| 2026-04-27 18:54 | 55.40668 | 60.63365 | 8895 ft | 294 kts | 94° |
| 2026-04-27 18:55 | 55.40684 | 60.66966 | 8549 ft | 292 kts | 95° |
| 2026-04-27 18:55 | 55.40700 | 60.70487 | 8216 ft | 289 kts | 95° |
| 2026-04-27 18:55 | 55.40715 | 60.73974 | 8031 ft | 282 kts | 95° |
| 2026-04-27 18:55 | 55.40732 | 60.77308 | 8019 ft | 266 kts | 95° |
| 2026-04-27 18:56 | 55.40748 | 60.80463 | 8012 ft | 251 kts | 95° |
| 2026-04-27 18:56 | 55.40829 | 60.83486 | 7903 ft | 244 kts | 92° |
| 2026-04-27 18:56 | 55.40955 | 60.86482 | 7478 ft | 249 kts | 91° |
| 2026-04-27 18:56 | 55.41091 | 60.89525 | 7098 ft | 251 kts | 91° |
| 2026-04-27 18:57 | 55.41227 | 60.92554 | 6747 ft | 252 kts | 91° |
| 2026-04-27 18:57 | 55.41364 | 60.95622 | 6409 ft | 252 kts | 91° |
| 2026-04-27 18:57 | 55.41498 | 60.98678 | 6086 ft | 250 kts | 91° |
| 2026-04-27 18:57 | 55.41631 | 61.01698 | 5758 ft | 242 kts | 92° |
| 2026-04-27 18:58 | 55.41757 | 61.04550 | 5457 ft | 232 kts | 92° |
| 2026-04-27 18:58 | 55.41879 | 61.07355 | 5171 ft | 228 kts | 92° |
| 2026-04-27 18:58 | 55.41994 | 61.10120 | 4883 ft | 227 kts | 93° |
| 2026-04-27 18:58 | 55.42109 | 61.12888 | 4593 ft | 226 kts | 93° |
| 2026-04-27 18:59 | 55.42222 | 61.15612 | 4303 ft | 225 kts | 93° |
| 2026-04-27 18:59 | 55.42110 | 61.18291 | 3956 ft | 212 kts | 122° |
| 2026-04-27 18:59 | 55.41200 | 61.20001 | 3800 ft | 182 kts | 159° |
| 2026-04-27 18:59 | 55.40097 | 61.20948 | 3771 ft | 172 kts | 159° |
| 2026-04-27 19:00 | 55.39099 | 61.21898 | 3745 ft | 157 kts | 158° |
| 2026-04-27 19:00 | 55.38188 | 61.22799 | 3598 ft | 142 kts | 158° |
| 2026-04-27 19:00 | 55.37362 | 61.23626 | 3458 ft | 136 kts | 158° |
| 2026-04-27 19:00 | 55.36546 | 61.24437 | 3209 ft | 135 kts | 158° |
| 2026-04-27 19:01 | 55.35730 | 61.25253 | 3008 ft | 134 kts | 158° |
| 2026-04-27 19:01 | 55.34920 | 61.26067 | 2825 ft | 134 kts | 157° |
| 2026-04-27 19:01 | 55.34147 | 61.26978 | 2634 ft | 139 kts | 141° |
| 2026-04-27 19:01 | 55.33691 | 61.28460 | 2525 ft | 136 kts | 121° |
| 2026-04-27 19:02 | 55.33421 | 61.30030 | 2534 ft | 133 kts | 116° |
| 2026-04-27 19:02 | 55.33203 | 61.31590 | 2548 ft | 131 kts | 115° |
| 2026-04-27 19:02 | 55.32990 | 61.33145 | 2456 ft | 132 kts | 115° |
| 2026-04-27 19:02 | 55.32772 | 61.34708 | 2283 ft | 132 kts | 114° |
| 2026-04-27 19:03 | 55.32550 | 61.36284 | 2104 ft | 133 kts | 113° |
| 2026-04-27 19:03 | 55.32330 | 61.37860 | 1937 ft | 133 kts | 113° |
| 2026-04-27 19:03 | 55.32113 | 61.39413 | 1758 ft | 131 kts | 113° |
| 2026-04-27 19:03 | 55.31968 | 61.40442 | 1638 ft | 130 kts | 112° |
| 2026-04-27 19:04 | 55.31679 | 61.42501 | 1404 ft | 130 kts | 111° |
| 2026-04-27 19:04 | 55.31463 | 61.44038 | 1227 ft | 130 kts | 109° |
| 2026-04-27 19:04 | 55.31248 | 61.45576 | 1049 ft | 130 kts | 108° |
| 2026-04-27 19:04 | 55.31035 | 61.47098 | 875 ft | 129 kts | 107° |
| 2026-04-27 19:05 | 55.30821 | 61.48594 | 764 ft | 118 kts | 102° |
| 2026-04-27 19:05 | 55.30666 | 61.49718 | 761 ft | 70 kts | 103° |
| 2026-04-27 19:05 | 55.30571 | 61.50409 | 754 ft | 44 kts | 103° |
| 2026-04-27 19:05 | 55.30501 | 61.50908 | 749 ft | 40 kts | 104° |
| 2026-04-27 19:06 | 55.30448 | 61.51270 | 746 ft | 22 kts | 104° |
| 2026-04-27 19:06 | 55.30341 | 61.51413 | 744 ft | 20 kts | 188° |
| 2026-04-27 19:06 | 55.30205 | 61.51357 | 744 ft | 19 kts | 193° |
| 2026-04-27 19:06 | 55.30087 | 61.51310 | 744 ft | 14 kts | 193° |
| 2026-04-27 19:07 | 55.30006 | 61.51228 | 744 ft | 8 kts | 200° |
| 2026-04-27 19:07 | 55.29984 | 61.51219 | 744 ft | 0 kts | 192° |